Atwell, West Virginia
Current Conditions -  °F | °C
As of 5:55 AM on Thursday 27 Nov 2014 (Local Time) from KJFZ Reporting Station
Light Snow Light Snow  
Wind Chill: 35°   Ceiling: 300
Heat Index: 35°   Visibility: 2mi
Dew Point: 33°   Wind: 0mph
Humidity: 94%   Direction: NA
Pressure: 29.96"   Gusts: NA
Location:  37.3433°N, 81.7826°W
Report Text: KJFZ 271055Z AUTO 00000KT 2SM -SN OVC003 02/01 A2996 RMK AO2 T00150006
Loading
Personal Weather Stations






























Interactive Weather Map New forecast layout! Learn more

10-Day Weather Forecast

Advertisements
Track Severe Weather on mobile